Time;durP1;ratioP1;P1;durP2;ratioP2;P2;SDS_P1;SDS_P2;PMS_P1;PMS_P2;Temp;Humidity;BMP_temperature;BMP_pressure;BME280_temperature;BME280_humidity;BME280_pressure;Samples;Min_cycle;Max_cycle;Signal;HPM_P1;HPM_P2
2023/06/05 00:01:43;;;;;;;1999.90;999.90;;;18.50;99.90;;;;;;5035445;28;20053;-79
2023/06/05 00:04:09;;;;;;;1999.90;999.90;;;18.50;99.90;;;;;;5035961;28;20030;-79
2023/06/05 00:06:37;;;;;;;1999.90;999.90;;;18.40;99.90;;;;;;5034727;28;20442;-80
2023/06/05 00:09:05;;;;;;;1999.90;999.90;;;18.40;99.90;;;;;;5035625;28;20059;-79
2023/06/05 00:11:31;;;;;;;1999.90;999.90;;;18.40;99.90;;;;;;5018498;28;20136;-79
2023/06/05 00:13:57;;;;;;;1999.90;999.90;;;18.30;99.90;;;;;;5035469;28;20037;-79
2023/06/05 00:16:22;;;;;;;1999.90;999.90;;;18.30;99.90;;;;;;5035330;28;20037;-79
2023/06/05 00:18:48;;;;;;;1999.90;999.90;;;18.20;99.90;;;;;;5035732;28;20017;-80
2023/06/05 00:21:17;;;;;;;1999.90;999.90;;;18.20;99.90;;;;;;5035736;28;20339;-79
2023/06/05 00:23:43;;;;;;;1999.90;999.90;;;18.20;99.90;;;;;;5035442;28;20036;-79
2023/06/05 00:26:09;;;;;;;1999.90;999.90;;;18.10;99.90;;;;;;5034186;28;20025;-79
2023/06/05 00:28:34;;;;;;;1999.90;999.90;;;18.20;99.90;;;;;;5035360;28;20500;-79
2023/06/05 00:31:01;;;;;;;1999.90;999.90;;;18.20;99.90;;;;;;5017408;28;20036;-79
2023/06/05 00:33:29;;;;;;;1999.90;999.90;;;18.20;99.90;;;;;;5035491;28;20022;-79
2023/06/05 00:35:55;;;;;;;1999.90;999.90;;;18.20;99.90;;;;;;5035114;28;20046;-80
2023/06/05 00:38:21;;;;;;;1999.90;999.90;;;18.20;99.90;;;;;;5035234;28;20465;-79
2023/06/05 00:40:46;;;;;;;1999.90;999.90;;;18.20;99.90;;;;;;5017226;28;20036;-79
2023/06/05 00:43:12;;;;;;;1999.90;999.90;;;18.20;99.90;;;;;;5035112;28;20481;-79
2023/06/05 00:45:37;;;;;;;1999.90;999.90;;;18.20;99.90;;;;;;5035080;28;20104;-79
2023/06/05 00:48:03;;;;;;;1999.90;999.90;;;18.10;99.90;;;;;;5034910;28;20033;-79
2023/06/05 00:50:32;;;;;;;1999.90;999.90;;;18.10;99.90;;;;;;5035031;28;20021;-79
2023/06/05 00:52:58;;;;;;;1999.90;999.90;;;18.10;99.90;;;;;;5035071;28;20033;-79
2023/06/05 00:55:25;;;;;;;1999.90;999.90;;;18.10;99.90;;;;;;5034927;28;20014;-79
2023/06/05 00:57:51;;;;;;;1999.90;999.90;;;18.00;99.90;;;;;;5017043;28;20045;-80
2023/06/05 01:00:16;;;;;;;1999.90;999.90;;;18.00;99.90;;;;;;5034832;28;20017;-79
2023/06/05 01:02:42;;;;;;;1999.90;999.90;;;18.00;99.90;;;;;;5034642;28;20036;-79
2023/06/05 01:05:08;;;;;;;1999.90;999.90;;;18.00;99.90;;;;;;5034617;28;20032;-80
2023/06/05 01:07:38;;;;;;;1999.90;999.90;;;18.00;99.90;;;;;;5034039;28;20026;-79
2023/06/05 01:10:08;;;;;;;1999.90;999.90;;;17.90;99.90;;;;;;5034386;28;20022;-79
2023/06/05 01:12:47;;;;;;;1999.90;999.90;;;17.90;99.90;;;;;;5034399;28;20018;-79
2023/06/05 01:15:15;;;;;;;1999.90;999.90;;;17.90;99.90;;;;;;5015998;28;20036;-79
2023/06/05 01:17:47;;;;;;;1999.90;999.90;;;17.80;99.90;;;;;;5034553;28;20396;-79
2023/06/05 01:20:13;;;;;;;1999.90;999.90;;;17.80;99.90;;;;;;5034478;28;20095;-79
2023/06/05 01:22:38;;;;;;;1999.90;999.90;;;17.70;99.90;;;;;;5034641;28;20033;-79
2023/06/05 01:25:07;;;;;;;1999.90;999.90;;;17.70;99.90;;;;;;5034343;28;20029;-79
2023/06/05 01:27:36;;;;;;;1999.90;999.90;;;17.60;99.90;;;;;;5015435;28;20037;-79
2023/06/05 01:30:14;;;;;;;1999.90;999.90;;;17.50;99.90;;;;;;5034023;28;20032;-79
2023/06/05 01:33:08;;;;;;;1999.90;999.90;;;17.50;99.90;;;;;;5034544;28;20112;-79
2023/06/05 01:35:35;;;;;;;1999.90;999.90;;;17.40;99.90;;;;;;5022278;28;20052;-79
2023/06/05 01:38:05;;;;;;;1999.90;999.90;;;17.40;99.90;;;;;;5033090;28;20021;-79
2023/06/05 01:40:32;;;;;;;1999.90;999.90;;;17.40;99.90;;;;;;5015175;28;20017;-80
2023/06/05 01:42:59;;;;;;;1999.90;999.90;;;17.40;99.90;;;;;;5032465;28;20036;-79
2023/06/05 01:45:26;;;;;;;1999.90;999.90;;;17.40;99.90;;;;;;5033230;28;20063;-79
2023/06/05 01:47:53;;;;;;;1999.90;999.90;;;17.30;99.90;;;;;;5033091;28;20025;-80
2023/06/05 01:50:19;;;;;;;1999.90;999.90;;;17.30;99.90;;;;;;5032882;28;20013;-79
2023/06/05 01:52:46;;;;;;;1999.90;999.90;;;17.20;99.90;;;;;;5032833;28;20484;-79
2023/06/05 01:55:20;;;;;;;1999.90;999.90;;;17.30;99.90;;;;;;5032955;28;20032;-79
2023/06/05 01:57:46;;;;;;;1999.90;999.90;;;17.30;99.90;;;;;;5033067;28;20484;-79
2023/06/05 02:00:15;;;;;;;1999.90;999.90;;;17.30;99.90;;;;;;5032849;28;20475;-80
2023/06/05 02:02:45;;;;;;;1999.90;999.90;;;17.20;99.90;;;;;;5032665;28;20025;-79
2023/06/05 02:05:12;;;;;;;1999.90;999.90;;;17.20;99.90;;;;;;5032729;28;20467;-79
2023/06/05 02:07:49;;;;;;;1999.90;999.90;;;17.10;99.90;;;;;;5032687;28;20045;-79
2023/06/05 02:10:15;;;;;;;1999.90;999.90;;;17.00;99.90;;;;;;5032411;28;20032;-79
2023/06/05 02:12:44;;;;;;;1999.90;999.90;;;17.00;99.90;;;;;;5032747;28;20108;-79
2023/06/05 02:15:12;;;;;;;1999.90;999.90;;;17.00;99.90;;;;;;5032194;28;20040;-80
2023/06/05 02:17:44;;;;;;;1999.90;999.90;;;16.90;99.90;;;;;;5032434;28;20067;-79
2023/06/05 02:20:12;;;;;;;1999.90;999.90;;;16.90;99.90;;;;;;5032667;28;20025;-79
2023/06/05 02:22:38;;;;;;;1999.90;999.90;;;16.90;99.90;;;;;;5032488;28;20025;-79
2023/06/05 02:25:05;;;;;;;1999.90;999.90;;;16.90;99.90;;;;;;5032640;28;20503;-79
2023/06/05 02:27:30;;;;;;;1999.90;999.90;;;16.90;99.90;;;;;;5032265;28;20491;-79
2023/06/05 02:29:56;;;;;;;1999.90;999.90;;;16.90;99.90;;;;;;5032380;28;20033;-79
2023/06/05 02:32:25;;;;;;;1999.90;999.90;;;16.80;99.90;;;;;;5032367;28;20112;-80
2023/06/05 02:34:56;;;;;;;1999.90;999.90;;;16.80;99.90;;;;;;4993100;28;1124553;-79
2023/06/05 02:37:26;;;;;;;1999.90;999.90;;;16.80;99.90;;;;;;5033095;28;20224;-79
2023/06/05 02:39:51;;;;;;;1999.90;999.90;;;16.80;99.90;;;;;;5033101;28;20051;-79
2023/06/05 02:42:18;;;;;;;1999.90;999.90;;;16.80;99.90;;;;;;5032864;28;20026;-79
2023/06/05 02:44:44;;;;;;;1999.90;999.90;;;16.80;99.90;;;;;;5032966;28;20091;-79
2023/06/05 02:47:10;;;;;;;1999.90;999.90;;;16.80;99.90;;;;;;5033072;28;20113;-79
2023/06/05 02:49:37;;;;;;;1999.90;999.90;;;16.70;99.90;;;;;;5032855;28;20500;-79
2023/06/05 02:52:03;;;;;;;1999.90;999.90;;;16.70;99.90;;;;;;5032805;28;20496;-79
2023/06/05 02:54:28;;;;;;;1999.90;999.90;;;16.60;99.90;;;;;;5014694;28;20033;-79
2023/06/05 02:56:56;;;;;;;1999.90;999.90;;;16.50;99.90;;;;;;5032475;28;20083;-79
2023/06/05 02:59:24;;;;;;;1999.90;999.90;;;16.60;99.90;;;;;;5032841;28;20423;-79
2023/06/05 03:01:51;;;;;;;1999.90;999.90;;;16.50;99.90;;;;;;5032715;28;20532;-79
2023/06/05 03:04:21;;;;;;;1999.90;999.90;;;16.50;99.90;;;;;;5032834;28;20025;-79
2023/06/05 03:06:50;;;;;;;1999.90;999.90;;;16.50;99.90;;;;;;5032240;28;20112;-79
2023/06/05 03:09:16;;;;;;;1999.90;999.90;;;16.50;99.90;;;;;;5031939;28;20093;-79
2023/06/05 03:11:42;;;;;;;1999.90;999.90;;;16.60;99.90;;;;;;5032664;28;20435;-79
2023/06/05 03:14:08;;;;;;;1999.90;999.90;;;16.60;99.90;;;;;;5032426;28;20435;-79
2023/06/05 03:16:41;;;;;;;1999.90;999.90;;;16.60;99.90;;;;;;5032662;28;20152;-79
2023/06/05 03:19:10;;;;;;;1999.90;999.90;;;16.70;99.90;;;;;;5032409;28;20029;-79
2023/06/05 03:21:37;;;;;;;1999.90;999.90;;;16.70;99.90;;;;;;5032745;28;20444;-79
2023/06/05 03:24:05;;;;;;;1999.90;999.90;;;16.80;99.90;;;;;;5032712;28;20030;-79
2023/06/05 03:26:32;;;;;;;1999.90;999.90;;;16.80;99.90;;;;;;5032522;28;20511;-79
2023/06/05 03:28:58;;;;;;;1999.90;999.90;;;16.80;99.90;;;;;;5032579;28;20072;-79
2023/06/05 03:31:23;;;;;;;1999.90;999.90;;;16.80;99.90;;;;;;5032502;28;20025;-79
2023/06/05 03:33:49;;;;;;;1999.90;999.90;;;16.80;99.90;;;;;;5032719;28;20025;-80
2023/06/05 03:36:17;;;;;;;1999.90;999.90;;;16.80;99.90;;;;;;5014778;28;20053;-79
2023/06/05 03:38:43;;;;;;;1999.90;999.90;;;16.80;99.90;;;;;;5032363;28;20065;-79
2023/06/05 03:41:09;;;;;;;1999.90;999.90;;;16.70;99.90;;;;;;5032327;28;20064;-79
2023/06/05 03:43:35;;;;;;;1999.90;999.90;;;16.80;99.90;;;;;;5032314;28;20025;-79
2023/06/05 03:46:00;;;;;;;1999.90;999.90;;;16.70;99.90;;;;;;5014243;28;20034;-79
2023/06/05 03:48:26;;;;;;;1999.90;999.90;;;16.70;99.90;;;;;;5032213;28;20013;-80
2023/06/05 03:50:53;;;;;;;1999.90;999.90;;;16.60;99.90;;;;;;5014598;28;20112;-79
2023/06/05 03:53:19;;;;;;;1999.90;999.90;;;16.60;99.90;;;;;;5032463;28;20105;-79
2023/06/05 03:55:45;;;;;;;1999.90;999.90;;;16.60;99.90;;;;;;5032290;28;20404;-79
2023/06/05 03:58:15;;;;;;;1999.90;999.90;;;16.50;99.90;;;;;;5032059;28;20036;-79
2023/06/05 04:00:44;;;;;;;1999.90;999.90;;;16.40;99.90;;;;;;5032356;28;20030;-79
2023/06/05 04:03:11;;;;;;;1999.90;999.90;;;16.20;99.90;;;;;;5032013;28;20032;-79
2023/06/05 04:05:38;;;;;;;1999.90;999.90;;;16.20;99.90;;;;;;5027819;28;20516;-79
2023/06/05 04:08:05;;;;;;;1999.90;999.90;;;16.10;99.90;;;;;;5015656;28;20547;-79
2023/06/05 04:10:31;;;;;;;1999.90;999.90;;;16.10;99.90;;;;;;5034738;28;20064;-79
2023/06/05 04:12:57;;;;;;;1999.90;999.90;;;16.10;99.90;;;;;;5024194;28;20073;-79
2023/06/05 04:15:26;;;;;;;1999.90;999.90;;;16.10;99.90;;;;;;5015689;28;20034;-79
2023/06/05 04:17:52;;;;;;;1999.90;999.90;;;16.10;99.90;;;;;;5015978;28;20037;-79
2023/06/05 04:20:18;;;;;;;1999.90;999.90;;;16.10;99.90;;;;;;5015626;28;20030;-79
2023/06/05 04:22:45;;;;;;;1999.90;999.90;;;16.10;99.90;;;;;;5015313;28;20397;-79
2023/06/05 04:25:12;;;;;;;1999.90;999.90;;;16.20;99.90;;;;;;5014305;28;20026;-79
2023/06/05 04:27:43;;;;;;;1999.90;999.90;;;16.20;99.90;;;;;;5015719;28;20120;-79
2023/06/05 04:30:10;;;;;;;1999.90;999.90;;;16.20;99.90;;;;;;5015590;28;20029;-79
2023/06/05 04:32:38;;;;;;;1999.90;999.90;;;16.10;99.90;;;;;;5015775;28;20385;-79
2023/06/05 04:35:05;;;;;;;1999.90;999.90;;;16.10;99.90;;;;;;5031882;28;20061;-79
2023/06/05 04:37:31;;;;;;;1999.90;999.90;;;16.20;99.90;;;;;;5035275;28;20100;-79
2023/06/05 04:39:58;;;;;;;1999.90;999.90;;;16.20;99.90;;;;;;5035337;28;20596;-79
2023/06/05 04:42:25;;;;;;;1999.90;999.90;;;16.20;99.90;;;;;;5035289;28;20053;-79
2023/06/05 04:44:57;;;;;;;1999.90;999.90;;;16.20;99.90;;;;;;5035093;28;20030;-79
2023/06/05 04:47:23;;;;;;;1999.90;999.90;;;16.20;99.90;;;;;;5035369;28;20029;-79
2023/06/05 04:49:51;;;;;;;1999.90;999.90;;;16.20;99.90;;;;;;5034942;28;20385;-79
2023/06/05 04:52:17;;;;;;;1999.90;999.90;;;16.20;99.90;;;;;;5034890;28;20032;-79
2023/06/05 04:54:43;;;;;;;1999.90;999.90;;;16.20;99.90;;;;;;5032708;28;20095;-80
2023/06/05 04:57:10;;;;;;;1999.90;999.90;;;16.20;99.90;;;;;;5034052;28;20497;-79
2023/06/05 04:59:36;;;;;;;1999.90;999.90;;;16.20;99.90;;;;;;5034578;28;20037;-79
2023/06/05 05:02:03;;;;;;;1999.90;999.90;;;16.20;99.90;;;;;;5015932;28;20057;-79
2023/06/05 05:04:29;;;;;;;1999.90;999.90;;;16.30;99.90;;;;;;5014860;28;20045;-79
2023/06/05 05:07:00;;;;;;;1999.90;999.90;;;16.30;99.90;;;;;;5029834;28;20071;-79
2023/06/05 05:09:26;;;;;;;1999.90;999.90;;;16.40;99.90;;;;;;5034258;28;20430;-79
2023/06/05 05:11:52;;;;;;;1999.90;999.90;;;16.50;99.90;;;;;;5033539;28;20036;-79
2023/06/05 05:14:18;;;;;;;1999.90;999.90;;;16.60;99.90;;;;;;5034350;28;20025;-79
2023/06/05 05:16:43;;;;;;;1999.90;999.90;;;16.70;99.90;;;;;;5016699;28;20115;-79
2023/06/05 05:19:09;;;;;;;1999.90;999.90;;;16.70;99.90;;;;;;5033642;28;20446;-79
2023/06/05 05:21:36;;;;;;;1999.90;999.90;;;16.80;99.90;;;;;;5034246;28;20492;-79
2023/06/05 05:24:01;;;;;;;1999.90;999.90;;;16.90;99.90;;;;;;5034074;28;20032;-79
2023/06/05 05:26:27;;;;;;;1999.90;999.90;;;16.90;99.90;;;;;;5033815;28;20104;-79
2023/06/05 05:28:53;;;;;;;1999.90;999.90;;;17.00;99.90;;;;;;5033634;28;20449;-79
2023/06/05 05:31:19;;;;;;;1999.90;999.90;;;17.00;99.90;;;;;;5033760;28;20401;-79
2023/06/05 05:33:44;;;;;;;1999.90;999.90;;;17.00;99.90;;;;;;5033797;28;20108;-79
2023/06/05 05:36:10;;;;;;;1999.90;999.90;;;17.10;99.90;;;;;;5012213;28;20046;-79
2023/06/05 05:38:35;;;;;;;1999.90;999.90;;;17.10;99.90;;;;;;5019629;28;20065;-79
2023/06/05 05:41:01;;;;;;;1999.90;999.90;;;17.20;99.90;;;;;;5033755;28;20026;-80
2023/06/05 05:43:27;;;;;;;1999.90;999.90;;;17.20;99.90;;;;;;5031105;28;20030;-81
2023/06/05 05:45:52;;;;;;;1999.90;999.90;;;17.20;99.90;;;;;;5031334;28;20033;-81
2023/06/05 05:48:18;;;;;;;1999.90;999.90;;;17.20;99.90;;;;;;5033465;28;20053;-80
2023/06/05 05:50:43;;;;;;;1999.90;999.90;;;17.30;99.90;;;;;;5033126;28;20097;-81
2023/06/05 05:53:09;;;;;;;1999.90;999.90;;;17.40;99.90;;;;;;5033204;28;20064;-81
2023/06/05 05:55:35;;;;;;;1999.90;999.90;;;17.40;99.90;;;;;;5032902;28;20448;-81
2023/06/05 05:58:00;;;;;;;1999.90;999.90;;;17.40;99.90;;;;;;5033110;28;20139;-81
2023/06/05 06:00:28;;;;;;;1999.90;999.90;;;17.50;99.90;;;;;;5013420;28;20393;-81
2023/06/05 06:02:53;;;;;;;1999.90;999.90;;;17.60;99.90;;;;;;5019243;28;20079;-81
2023/06/05 06:05:20;;;;;;;1999.90;999.90;;;17.70;99.90;;;;;;5020006;28;20025;-81
2023/06/05 06:07:46;;;;;;;1999.90;999.90;;;17.80;99.90;;;;;;5030561;28;20078;-80
2023/06/05 06:10:12;;;;;;;1999.90;999.90;;;17.90;99.90;;;;;;5029116;28;20440;-81
2023/06/05 06:12:39;;;;;;;1999.90;999.90;;;18.00;99.90;;;;;;5017103;28;20030;-81
2023/06/05 06:15:05;;;;;;;1999.90;999.90;;;18.10;99.90;;;;;;5021662;28;20087;-81
2023/06/05 06:17:31;;;;;;;1999.90;999.90;;;18.10;99.90;;;;;;5009603;28;20026;-81
2023/06/05 06:19:57;;;;;;;1999.90;999.90;;;18.20;99.90;;;;;;5025162;28;20377;-81
2023/06/05 06:22:23;;;;;;;1999.90;999.90;;;18.30;99.90;;;;;;5022271;28;20033;-82
2023/06/05 06:24:50;;;;;;;1999.90;999.90;;;18.40;99.90;;;;;;5025574;28;20037;-81
2023/06/05 06:27:16;;;;;;;1999.90;999.90;;;18.50;99.90;;;;;;5027976;28;20112;-81
2023/06/05 06:29:52;;;;;;;1999.90;999.90;;;18.60;99.90;;;;;;5030157;28;20233;-81
2023/06/05 06:32:18;;;;;;;1999.90;999.90;;;18.70;99.90;;;;;;5030115;28;20013;-81
2023/06/05 06:34:44;;;;;;;1999.90;999.90;;;18.80;99.90;;;;;;5026479;28;20033;-81
2023/06/05 06:37:14;;;;;;;1999.90;999.90;;;18.90;99.90;;;;;;5030453;28;20037;-80
2023/06/05 06:39:41;;;;;;;1999.90;999.90;;;19.00;99.90;;;;;;5030713;28;20026;-81
2023/06/05 06:42:07;;;;;;;1999.90;999.90;;;19.10;99.90;;;;;;5027612;28;20624;-82
2023/06/05 06:44:32;;;;;;;1999.90;999.90;;;19.20;99.90;;;;;;5025197;28;20069;-81
2023/06/05 06:46:58;;;;;;;1999.90;999.90;;;19.30;99.90;;;;;;5030002;28;20022;-81
2023/06/05 06:49:23;;;;;;;1999.90;999.90;;;19.40;99.90;;;;;;5016469;28;20048;-81
2023/06/05 06:51:49;;;;;;;1999.90;999.90;;;19.50;99.90;;;;;;5026707;28;20103;-82
2023/06/05 06:54:15;;;;;;;1999.90;999.90;;;19.50;99.90;;;;;;5012292;28;20649;-81
2023/06/05 06:56:42;;;;;;;1999.90;999.90;;;19.60;99.90;;;;;;5002271;28;20048;-82
2023/06/05 06:59:14;;;;;;;1999.90;999.90;;;19.70;99.90;;;;;;5001981;28;20466;-79
2023/06/05 07:01:47;;;;;;;1999.90;999.90;;;19.80;99.90;;;;;;5001454;28;20437;-76
2023/06/05 07:04:20;;;;;;;1999.90;999.90;;;19.90;99.90;;;;;;4998563;28;20045;-76
2023/06/05 07:06:48;;;;;;;1999.90;999.90;;;20.10;99.90;;;;;;5003707;28;20397;-78
2023/06/05 07:09:14;;;;;;;1999.90;999.90;;;20.30;99.90;;;;;;4992208;28;20046;-80
2023/06/05 07:11:40;;;;;;;1999.90;999.90;;;20.50;99.90;;;;;;5000587;28;20128;-79
2023/06/05 07:14:07;;;;;;;1999.90;999.90;;;20.60;99.90;;;;;;4992151;28;20029;-80
2023/06/05 07:16:33;;;;;;;1999.90;999.90;;;20.70;99.90;;;;;;4997021;28;20139;-77
2023/06/05 07:18:58;;;;;;;1999.90;999.90;;;20.80;99.90;;;;;;4991562;28;20036;-80
2023/06/05 07:21:25;;;;;;;1999.90;999.90;;;20.90;99.90;;;;;;5012087;28;20037;-80
2023/06/05 07:23:53;;;;;;;1999.90;999.90;;;21.10;99.90;;;;;;5002529;28;20351;-82
2023/06/05 07:26:18;;;;;;;1999.90;999.90;;;21.20;99.90;;;;;;5002019;28;20029;-81
2023/06/05 07:28:46;;;;;;;1999.90;999.90;;;21.50;99.90;;;;;;5003960;28;20042;-82
2023/06/05 07:31:13;;;;;;;1999.90;999.90;;;22.00;99.90;;;;;;5003727;28;20022;-86
2023/06/05 07:33:38;;;;;;;1999.90;999.90;;;23.60;99.90;;;;;;5003750;28;20509;-82
2023/06/05 07:36:04;;;;;;;1999.90;999.90;;;25.40;99.90;;;;;;5003514;28;20416;-82
2023/06/05 07:38:30;;;;;;;1999.90;999.90;;;26.60;99.90;;;;;;5003979;28;20049;-85
2023/06/05 07:41:01;;;;;;;1999.90;999.90;;;27.50;99.90;;;;;;5004344;28;20029;-82
2023/06/05 07:43:27;;;;;;;1999.90;999.90;;;28.10;99.90;;;;;;5007394;28;20045;-82
2023/06/05 07:45:53;;;;;;;1999.90;999.90;;;28.60;98.50;;;;;;4986357;28;20568;-84
2023/06/05 07:48:19;;;;;;;1999.90;999.90;;;28.90;97.20;;;;;;4991181;28;20038;-82
2023/06/05 07:50:45;;;;;;;1999.90;999.90;;;28.80;97.10;;;;;;4987774;28;20488;-83
2023/06/05 07:53:11;;;;;;;1999.90;999.90;;;29.30;96.40;;;;;;4980960;28;20080;-83
2023/06/05 07:55:36;;;;;;;1999.90;999.90;;;30.00;95.30;;;;;;5012413;28;20028;-86
2023/06/05 07:58:02;;;;;;;1999.90;999.90;;;30.60;95.10;;;;;;5009597;28;20582;-83
2023/06/05 08:00:28;;;;;;;1999.90;999.90;;;31.00;94.80;;;;;;5003849;28;20100;-82
2023/06/05 08:02:53;;;;;;;1999.90;999.90;;;31.30;93.60;;;;;;4995867;28;20360;-81
2023/06/05 08:05:19;;;;;;;1999.90;999.90;;;31.70;94.10;;;;;;5007424;28;20029;-81
2023/06/05 08:07:46;;;;;;;1999.90;999.90;;;31.80;93.30;;;;;;4993905;28;20524;-80
2023/06/05 08:10:12;;;;;;;1999.90;999.90;;;31.90;93.20;;;;;;5008936;28;20112;-79
2023/06/05 08:12:38;;;;;;;1999.90;999.90;;;32.00;92.90;;;;;;5000970;28;20350;-78
2023/06/05 08:15:05;;;;;;;1999.90;999.90;;;31.80;92.10;;;;;;5005999;28;20572;-78
2023/06/05 08:17:31;;;;;;;1999.90;999.90;;;32.30;91.90;;;;;;5007312;28;20958;-77
2023/06/05 08:19:56;;;;;;;1999.90;999.90;;;33.00;91.80;;;;;;5009462;28;20080;-79
2023/06/05 08:22:22;;;;;;;1999.90;999.90;;;33.10;90.80;;;;;;5006738;28;20288;-80
2023/06/05 08:24:49;;;;;;;1999.90;999.90;;;33.00;91.00;;;;;;5006831;28;20041;-80
2023/06/05 08:27:19;;;;;;;1999.90;999.90;;;33.40;90.40;;;;;;5006380;28;20610;-79
2023/06/05 08:29:44;;;;;;;1999.90;999.90;;;33.60;90.20;;;;;;5005417;28;20516;-78
2023/06/05 08:32:10;;;;;;;1999.90;999.90;;;34.20;90.50;;;;;;5005487;28;20121;-79
2023/06/05 08:34:36;;;;;;;1999.90;999.90;;;34.00;89.90;;;;;;5005632;28;20136;-79
2023/06/05 08:37:02;;;;;;;1999.90;999.90;;;34.40;89.00;;;;;;5006241;28;20686;-78
2023/06/05 08:39:31;;;;;;;1999.90;999.90;;;34.30;88.00;;;;;;5005897;28;20367;-79
2023/06/05 08:42:00;;;;;;;1999.90;999.90;;;34.50;85.60;;;;;;5006026;28;20041;-78
2023/06/05 08:44:29;;;;;;;1999.90;999.90;;;35.10;86.60;;;;;;5006169;28;20440;-81
2023/06/05 08:47:00;;;;;;;1999.90;999.90;;;34.90;85.80;;;;;;5006177;28;20320;-80
2023/06/05 08:49:36;;;;;;;1999.90;999.90;;;35.30;85.50;;;;;;5004020;28;20041;-80
2023/06/05 08:52:06;;;;;;;1999.90;999.90;;;35.50;84.40;;;;;;5005354;28;20033;-79
2023/06/05 08:54:41;;;;;;;1999.90;999.90;;;35.90;84.90;;;;;;5003854;28;20038;-81
2023/06/05 08:57:07;;;;;;;1999.90;999.90;;;35.80;83.00;;;;;;5005177;28;20466;-80
2023/06/05 08:59:33;;;;;;;1999.90;999.90;;;35.80;83.70;;;;;;5005797;28;20356;-81
2023/06/05 09:02:00;;;;;;;1999.90;999.90;;;35.40;85.10;;;;;;4993981;28;20135;-82
2023/06/05 09:04:29;;;;;;;1999.90;999.90;;;36.00;83.60;;;;;;5003048;28;20409;-81
2023/06/05 09:06:57;;;;;;;1999.90;999.90;;;35.70;83.10;;;;;;5005436;28;20759;-81
2023/06/05 09:09:23;;;;;;;1999.90;999.90;;;35.70;85.10;;;;;;5005769;28;20049;-80
2023/06/05 09:12:04;;;;;;;1999.90;999.90;;;36.00;83.80;;;;;;4999798;28;20029;-81
2023/06/05 09:14:32;;;;;;;1999.90;999.90;;;36.10;82.60;;;;;;4987277;28;20110;-80
2023/06/05 09:17:00;;;;;;;1999.90;999.90;;;36.50;82.20;;;;;;4998393;28;20068;-78
2023/06/05 09:19:36;;;;;;;1999.90;999.90;;;36.50;81.20;;;;;;5000561;28;20128;-83
2023/06/05 09:22:01;;;;;;;1999.90;999.90;;;36.70;82.10;;;;;;4984022;28;20196;-82
2023/06/05 09:24:29;;;;;;;1999.90;999.90;;;36.50;81.90;;;;;;5001091;28;20110;-80
2023/06/05 09:27:02;;;;;;;1999.90;999.90;;;36.40;81.40;;;;;;5005121;28;20097;-81
2023/06/05 09:29:29;;;;;;;1999.90;999.90;;;36.10;80.60;;;;;;5004948;28;20515;-79
2023/06/05 09:31:59;;;;;;;1999.90;999.90;;;36.30;81.30;;;;;;5001528;28;20434;-79
2023/06/05 09:34:31;;;;;;;1999.90;999.90;;;36.70;81.20;;;;;;5005839;28;20508;-79
2023/06/05 09:36:58;;;;;;;1999.90;999.90;;;36.90;80.40;;;;;;5004553;28;20496;-78
2023/06/05 09:39:25;;;;;;;1999.90;999.90;;;36.60;81.20;;;;;;5004134;28;20096;-80
2023/06/05 09:41:52;;;;;;;1999.90;999.90;;;36.80;81.20;;;;;;5004408;28;20112;-81
2023/06/05 09:44:19;;;;;;;1999.90;999.90;;;36.40;80.40;;;;;;5010235;28;20528;-79
2023/06/05 09:46:55;;;;;;;1999.90;999.90;;;36.80;78.90;;;;;;4985774;28;20033;-80
2023/06/05 09:49:23;;;;;;;1999.90;999.90;;;37.00;80.20;;;;;;5004225;28;20026;-79
2023/06/05 09:51:49;;;;;;;1999.90;999.90;;;37.00;78.90;;;;;;5004903;28;20036;-79
2023/06/05 09:54:16;;;;;;;1999.90;999.90;;;37.10;80.20;;;;;;5004396;28;20108;-81
2023/06/05 09:56:50;;;;;;;1999.90;999.90;;;36.90;78.70;;;;;;5004482;28;20312;-79
2023/06/05 09:59:24;;;;;;;1999.90;999.90;;;37.30;79.70;;;;;;4999071;28;20072;-78
2023/06/05 10:01:52;;;;;;;1999.90;999.90;;;37.30;77.70;;;;;;4988683;28;20140;-78
2023/06/05 10:04:23;;;;;;;1999.90;999.90;;;37.00;78.10;;;;;;5002358;28;20034;-79
2023/06/05 10:06:50;;;;;;;;;;;37.10;78.80;;;;;;4992817;28;20030;-79
2023/06/05 10:09:17;;;;;;;1999.90;999.90;;;37.00;77.90;;;;;;4996622;28;20011;-79
2023/06/05 10:11:43;;;;;;;1999.90;999.90;;;37.20;77.20;;;;;;5002519;28;20334;-79
2023/06/05 10:14:09;;;;;;;1999.90;999.90;;;36.60;77.30;;;;;;5010927;28;20363;-79
2023/06/05 10:16:36;;;;;;;1999.90;999.90;;;36.60;77.20;;;;;;5004098;28;20025;-79
2023/06/05 10:19:03;;;;;;;1999.90;999.90;;;36.70;78.20;;;;;;4999748;28;20500;-81
2023/06/05 10:21:29;;;;;;;1999.90;999.90;;;37.00;77.70;;;;;;4999098;28;20444;-81
2023/06/05 10:24:04;;;;;;;1999.90;999.90;;;37.50;76.30;;;;;;5006379;28;20146;-82
2023/06/05 10:27:00;;;;;;;1999.90;999.90;;;37.00;76.50;;;;;;4998619;28;20433;-81
2023/06/05 10:29:47;;;;;;;1999.90;999.90;;;37.20;77.50;;;;;;5004904;28;20574;-80
2023/06/05 10:32:29;;;;;;;1999.90;999.90;;;37.10;76.30;;;;;;5002574;28;20021;-82
2023/06/05 10:35:27;;;;;;;1999.90;999.90;;;37.60;75.20;;;;;;5000737;28;20172;-81
2023/06/05 10:38:09;;;;;;;1999.90;999.90;;;36.90;75.10;;;;;;5022129;28;20091;-82
2023/06/05 10:40:35;;;;;;;1999.90;999.90;;;36.50;75.60;;;;;;5031190;28;20060;-79
2023/06/05 10:43:33;;;;;;;1999.90;999.90;;;36.60;75.90;;;;;;5009319;28;20600;-82
2023/06/05 10:46:01;;;;;;;1999.90;999.90;;;36.90;75.70;;;;;;5010413;28;20489;-79
2023/06/05 10:49:04;;;;;;;1999.90;999.90;;;37.40;74.40;;;;;;5024878;28;20030;-79
2023/06/05 10:51:40;;;;;;;1999.90;999.90;;;37.10;74.50;;;;;;5022489;28;20476;-78
2023/06/05 10:54:10;;;;;;;1999.90;999.90;;;36.80;73.30;;;;;;5018324;28;20077;-78
2023/06/05 10:57:03;;;;;;;1999.90;999.90;;;36.60;73.60;;;;;;5031130;28;20504;-78
2023/06/05 10:59:34;;;;;;;1999.90;999.90;;;36.00;74.70;;;;;;5020032;28;20045;-79
2023/06/05 11:02:14;;;;;;;1999.90;999.90;;;35.70;74.90;;;;;;5030439;28;20033;-78
2023/06/05 11:04:46;;;;;;;1999.90;999.90;;;36.20;74.90;;;;;;5022971;28;20029;-79
2023/06/05 11:07:28;;;;;;;1999.90;999.90;;;36.00;72.00;;;;;;5030998;28;20112;-80
2023/06/05 11:10:05;;;;;;;1999.90;999.90;;;36.50;73.00;;;;;;5029536;28;20033;-81
2023/06/05 11:12:42;;;;;;;1999.90;999.90;;;36.90;72.60;;;;;;5029738;28;20107;-81
2023/06/05 11:15:12;;;;;;;1999.90;999.90;;;37.30;72.30;;;;;;5030833;28;20033;-81
2023/06/05 11:17:40;;;;;;;1999.90;999.90;;;36.90;73.40;;;;;;5011987;28;20537;-81
2023/06/05 11:20:09;;;;;;;1999.90;999.90;;;36.10;73.20;;;;;;5029482;28;20404;-81
2023/06/05 11:22:55;;;;;;;1999.90;999.90;;;36.20;73.30;;;;;;5032916;28;20080;-80
2023/06/05 11:25:21;;;;;;;1999.90;999.90;;;35.90;73.10;;;;;;5024323;28;20068;-81
2023/06/05 11:27:54;;;;;;;1999.90;999.90;;;36.60;74.20;;;;;;5040116;28;20118;-79
2023/06/05 11:30:22;;;;;;;1999.90;999.90;;;36.90;72.90;;;;;;5029524;28;20048;-79
2023/06/05 11:32:51;;;;;;;1999.90;999.90;;;36.50;73.40;;;;;;5033845;28;20040;-82
2023/06/05 11:35:21;;;;;;;1999.90;999.90;;;36.40;72.00;;;;;;5033012;28;20046;-81
2023/06/05 11:37:46;;;;;;;1999.90;999.90;;;36.60;72.80;;;;;;5033115;28;20033;-82
2023/06/05 11:40:24;;;;;;;1999.90;999.90;;;36.30;72.80;;;;;;5032895;28;20026;-81
2023/06/05 11:42:50;;;;;;;1999.90;999.90;;;36.50;74.70;;;;;;5033256;28;20045;-82
2023/06/05 11:45:15;;;;;;;1999.90;999.90;;;36.50;70.90;;;;;;5033108;28;20098;-80
2023/06/05 11:47:41;;;;;;;1999.90;999.90;;;36.10;72.60;;;;;;5027837;28;20479;-80
2023/06/05 11:50:15;;;;;;;1999.90;999.90;;;35.80;73.60;;;;;;5024905;28;20155;-83
2023/06/05 11:52:42;;;;;;;1999.90;999.90;;;35.90;72.20;;;;;;5036108;28;20014;-79
2023/06/05 11:55:29;;;;;;;1999.90;999.90;;;36.00;73.00;;;;;;5032747;28;20018;-79
2023/06/05 11:57:55;;;;;;;1999.90;999.90;;;36.00;73.30;;;;;;5027229;28;20040;-81
2023/06/05 12:00:26;;;;;;;1999.90;999.90;;;35.90;72.70;;;;;;5030301;28;20152;-81
2023/06/05 12:02:51;;;;;;;1999.90;999.90;;;36.10;71.00;;;;;;5025875;28;20567;-80
2023/06/05 12:05:17;;;;;;;1999.90;999.90;;;36.10;73.10;;;;;;5025705;28;20253;-80